Aeroporto :
LOGIN :

Iscrizione | Disclaimer

   EN    FR    IT 

 










Sommario :    VFR   VFR Marginale   IFR   IFR Intensivo   IFR Molto Intensivo
Visibilità : 
Base nubi : 
>= 8 km
>= 3000ft
5 / 8 km
1000 / 3000 ft
1500m / 5 km
500 / 1000 ft
800 / 1500m
200 / 500 ft
< 800m
< 200 ft
Simboli :   Temporali  Nebbia  Neve Forte  Precipitazioni Forti  Vento > 20 kt
SIGMETs :   Varie  Temporali  Ghiacco  Turbolenza  Onda orograficha  Ceneri Vulcaniche






- Altitudine del aeroporto : 74 ft
- Codice IATA : EIN


EHEH - Eindhoven

ULTIMO METAR :
  • 200628Z AUTO 14004KT 110V230 8000 BR SCT028 M01/M02 Q1018 BLU 13005KT 7000 BR SCT025 TEMPO 0500 FZFG

METARs OBSOLETI :
  • 200625Z AUTO 14003KT 100V230 7000 BR FEW028 M02/M02 Q1018 WHT VRB03KT CAVOK TEMPO 0500 FZFG
  • 200555Z AUTO 09003KT 030V110 8000 BR NCD M01/M02 Q1019 BLU VRB03KT CAVOK TEMPO 0500 FZFG
  • 200525Z AUTO 10002KT 9999 NCD M01/M01 Q1018 BLU
  • 200509Z AUTO 11003KT 070V170 9000 BR NCD M02/M02 Q1018 BLU
  • 200501Z AUTO 12003KT 4200 BR NCD M02/M02 Q1018 GRN
  • 200455Z AUTO VRB01KT 2000 BR NCD M02/M02 Q1018 YLO
  • 200443Z AUTO 05002KT 0550 FZFG NCD M02/M02 Q1018 RED
  • 200426Z AUTO 06001KT 3000 BR NCD M02/M02 Q1019 YLO
  • 200425Z AUTO 06001KT 4200 BR NCD M02/M02 Q1019 GRN
  • 200409Z AUTO 17001KT 5000 BR BKN060 M01/M02 Q1019 WHT
  • 200404Z AUTO VRB01KT 4700 BR OVC058 M02/M02 Q1019 GRN
  • 200355Z AUTO 14001KT 3900 BR OVC056 M02/M02 Q1019 GRN

TAF TAF EHEH
Valido dal 20 a 06 ore il 21 a 12 ore UTC


200512Z 2006/2112 VRB03KT 7000 NSC
TEMPO 2006/2018 3000 BR MIFG
PROB40
TEMPO 2006/2009 0500 FZFG
BECMG 2010/2013 09006KT
PROB40
TEMPO 2010/2018 SCT004 BKN008
PROB40
TEMPO 2020/2108 4000 BR



MetMap, La meteo Aeronautica in un colpo d'occhio ! - Copyright ORBIFLY Dicembre 2007 - Disclaimer

ORBIFLY MET'MAP TEAM :

Programmazione e sviluppo : Alexandra Zaïnal
Concezione e sviluppo : Baudouin d'Aumeries
Co-Programmazione e sviluppo : Marc-Olivier Méhu
Supporto tecnico e logistico : Manuel Goepfert
Aiuto per la traduzione : Arnaldo La Scala

Contatto : metmap@orbifly.com




FONTI E CREDITI :

   NOAA